createdAt,value
2019-06-01T00:01:36.136Z,17.01
2019-06-01T00:04:05.621Z,17.00
2019-06-01T00:06:38.617Z,17.00
2019-06-01T00:09:09.714Z,16.99
2019-06-01T00:11:41.240Z,16.99
2019-06-01T00:14:11.883Z,17.00
2019-06-01T00:16:41.970Z,16.96
2019-06-01T00:19:12.942Z,16.92
2019-06-01T00:21:45.445Z,16.86
2019-06-01T00:24:15.850Z,16.80
2019-06-01T00:26:45.858Z,16.78
2019-06-01T00:29:16.355Z,16.74
2019-06-01T00:31:47.878Z,16.69
2019-06-01T00:34:18.341Z,16.59
2019-06-01T00:36:47.837Z,16.47
2019-06-01T00:39:20.468Z,16.38
2019-06-01T00:41:52.475Z,16.29
2019-06-01T00:44:22.031Z,16.22
2019-06-01T00:46:51.308Z,16.13
2019-06-01T00:49:20.690Z,16.04
2019-06-01T00:51:52.135Z,15.92
2019-06-01T00:54:22.397Z,15.79
2019-06-01T00:56:53.840Z,15.73
2019-06-01T00:59:23.452Z,15.64
2019-06-01T01:01:54.125Z,15.57
2019-06-01T01:04:24.894Z,15.51
2019-06-01T01:06:57.007Z,15.49
2019-06-01T01:09:25.917Z,15.43
2019-06-01T01:11:55.481Z,15.38
2019-06-01T01:14:24.942Z,15.34
2019-06-01T01:16:57.389Z,15.33
2019-06-01T01:19:29.261Z,15.28
2019-06-01T01:22:00.230Z,15.22
2019-06-01T01:24:32.167Z,15.20
2019-06-01T01:27:01.687Z,15.20
2019-06-01T01:29:32.442Z,15.18
2019-06-01T01:32:02.953Z,15.15
2019-06-01T01:34:34.212Z,15.12
2019-06-01T01:37:03.659Z,15.08
2019-06-01T01:39:34.188Z,15.05
2019-06-01T01:42:03.578Z,15.02
2019-06-01T01:44:34.147Z,15.00
2019-06-01T01:47:02.617Z,15.01
2019-06-01T01:49:36.837Z,15.00
2019-06-01T01:52:06.213Z,14.97
2019-06-01T01:54:35.723Z,14.94
2019-06-01T01:57:08.159Z,14.93
2019-06-01T01:59:37.581Z,14.89
2019-06-01T02:02:09.848Z,14.83
2019-06-01T02:04:39.334Z,14.86
2019-06-01T02:07:09.813Z,14.83
2019-06-01T02:09:40.187Z,14.80
2019-06-01T02:12:09.493Z,14.79
2019-06-01T02:14:38.861Z,14.75
2019-06-01T02:17:08.175Z,14.72
2019-06-01T02:19:39.206Z,14.69
2019-06-01T02:22:12.946Z,14.66
2019-06-01T02:24:42.348Z,14.61
2019-06-01T02:27:12.711Z,14.53
2019-06-01T02:29:42.075Z,14.48
2019-06-01T02:32:12.482Z,14.50
2019-06-01T02:34:43.951Z,14.48
2019-06-01T02:37:12.875Z,14.45
2019-06-01T02:39:42.382Z,14.48
2019-06-01T02:42:16.013Z,14.43
2019-06-01T02:44:45.349Z,14.42
2019-06-01T02:47:14.760Z,14.39
2019-06-01T02:49:44.068Z,14.38
2019-06-01T02:52:15.945Z,14.36
2019-06-01T02:54:46.793Z,14.32
2019-06-01T02:57:17.377Z,14.27
2019-06-01T02:59:48.726Z,14.29
2019-06-01T03:02:19.868Z,14.27
2019-06-01T03:04:50.363Z,14.29
2019-06-01T03:07:21.191Z,14.28
2019-06-01T03:09:52.112Z,14.23
2019-06-01T03:12:23.707Z,14.25
2019-06-01T03:14:54.635Z,14.24
2019-06-01T03:17:28.017Z,14.23
2019-06-01T03:19:59.607Z,14.24
2019-06-01T03:22:30.566Z,14.24
2019-06-01T03:25:03.779Z,14.24
2019-06-01T03:27:35.971Z,14.27
2019-06-01T03:30:14.511Z,14.29
2019-06-01T03:32:42.423Z,14.30
2019-06-01T03:35:11.407Z,14.36
2019-06-01T03:37:41.720Z,14.38
2019-06-01T03:40:23.173Z,14.45
2019-06-01T03:42:42.573Z,14.53
2019-06-01T03:45:13.239Z,14.59
2019-06-01T03:47:43.144Z,14.69
2019-06-01T03:50:14.916Z,14.87
2019-06-01T03:52:44.270Z,16.16
2019-06-01T03:55:14.662Z,17.73
2019-06-01T03:57:45.080Z,18.80
2019-06-01T04:00:15.688Z,19.64
2019-06-01T04:02:45.048Z,20.42
2019-06-01T04:05:16.284Z,21.18
2019-06-01T04:07:46.690Z,21.81
2019-06-01T04:10:17.213Z,22.26
2019-06-01T04:12:46.623Z,22.95
2019-06-01T04:15:16.981Z,23.69
2019-06-01T04:17:47.476Z,24.27
2019-06-01T04:20:18.195Z,24.99
2019-06-01T04:22:47.586Z,25.82
2019-06-01T04:25:17.971Z,25.94
2019-06-01T04:27:47.247Z,27.23
2019-06-01T04:30:17.832Z,27.57
2019-06-01T04:32:50.359Z,28.19
2019-06-01T04:35:19.824Z,28.56
2019-06-01T04:37:50.254Z,29.24
2019-06-01T04:40:23.009Z,29.70
2019-06-01T04:42:54.892Z,30.47
2019-06-01T04:45:25.300Z,31.02
2019-06-01T04:47:55.671Z,31.59
2019-06-01T04:50:27.031Z,32.07
2019-06-01T04:52:55.531Z,32.79
2019-06-01T04:55:26.067Z,33.57
2019-06-01T04:57:57.016Z,33.61
2019-06-01T05:00:28.134Z,34.39
2019-06-01T05:03:05.208Z,34.83
2019-06-01T05:05:30.929Z,35.32
2019-06-01T05:08:00.286Z,35.32
2019-06-01T05:10:30.815Z,36.21
2019-06-01T05:13:00.376Z,36.36
2019-06-01T05:15:29.291Z,37.49
2019-06-01T05:17:58.837Z,37.54
2019-06-01T05:20:28.291Z,37.23
2019-06-01T05:23:00.676Z,38.36
2019-06-01T05:25:32.499Z,39.29
2019-06-01T05:28:02.806Z,38.69
2019-06-01T05:30:32.312Z,39.69
2019-06-01T05:33:02.742Z,38.98
2019-06-01T05:35:33.329Z,40.62
2019-06-01T05:38:05.973Z,40.27
2019-06-01T05:40:39.218Z,40.19
2019-06-01T05:43:13.851Z,39.07
2019-06-01T05:45:42.127Z,40.88
2019-06-01T05:48:13.212Z,40.64
2019-06-01T05:50:45.641Z,39.05
2019-06-01T05:53:16.734Z,41.14
2019-06-01T05:55:47.337Z,41.32
2019-06-01T05:58:19.727Z,40.31
2019-06-01T06:00:49.402Z,42.63
2019-06-01T06:03:23.643Z,44.24
2019-06-01T06:05:52.301Z,43.91
2019-06-01T06:08:22.659Z,43.67
2019-06-01T06:10:53.069Z,42.17
2019-06-01T06:13:24.828Z,43.29
2019-06-01T06:15:55.046Z,44.18
2019-06-01T06:18:27.021Z,43.37
2019-06-01T06:20:56.605Z,42.15
2019-06-01T06:23:27.742Z,42.69
2019-06-01T06:25:56.542Z,44.74
2019-06-01T06:28:26.960Z,44.24
2019-06-01T06:30:57.402Z,41.82
2019-06-01T06:33:27.968Z,43.33
2019-06-01T06:35:59.951Z,41.29
2019-06-01T06:38:29.354Z,43.13
2019-06-01T06:40:59.705Z,43.49
2019-06-01T06:43:33.130Z,43.38
2019-06-01T06:46:00.152Z,43.38
2019-06-01T06:48:29.547Z,42.35
2019-06-01T06:51:01.042Z,44.00
2019-06-01T06:53:35.001Z,45.63
2019-06-01T06:56:02.608Z,44.03
2019-06-01T06:58:33.077Z,45.76
2019-06-01T07:01:02.492Z,45.61
2019-06-01T07:03:32.143Z,45.77
2019-06-01T07:06:02.634Z,45.42
2019-06-01T07:08:32.999Z,46.13
2019-06-01T07:11:01.470Z,47.14
2019-06-01T07:13:31.874Z,46.81
2019-06-01T07:16:03.957Z,49.31
2019-06-01T07:18:33.540Z,49.24
2019-06-01T07:21:02.973Z,47.71
2019-06-01T07:23:33.378Z,47.43
2019-06-01T07:26:02.725Z,47.78
2019-06-01T07:28:33.034Z,47.19
2019-06-01T07:31:04.846Z,46.45
2019-06-01T07:33:34.157Z,49.96
2019-06-01T07:36:04.680Z,49.73
2019-06-01T07:38:35.276Z,50.50
2019-06-01T07:41:07.669Z,51.63
2019-06-01T07:43:37.065Z,51.11
2019-06-01T07:46:10.776Z,51.54
2019-06-01T07:48:41.177Z,51.94
2019-06-01T07:51:11.467Z,51.64
2019-06-01T07:53:42.092Z,52.67
2019-06-01T07:56:11.498Z,52.71
2019-06-01T07:58:40.861Z,52.30
2019-06-01T08:01:13.623Z,51.57
2019-06-01T08:03:42.997Z,53.41
2019-06-01T08:06:13.498Z,51.38
2019-06-01T08:08:44.113Z,50.87
2019-06-01T08:11:16.708Z,52.07
2019-06-01T08:13:47.158Z,53.57
2019-06-01T08:16:24.157Z,54.16
2019-06-01T08:18:54.935Z,54.43
2019-06-01T08:21:26.055Z,48.75
2019-06-01T08:23:58.768Z,50.63
2019-06-01T08:26:32.749Z,51.27
2019-06-01T08:29:01.662Z,51.30
2019-06-01T08:31:32.218Z,53.02
2019-06-01T08:34:02.052Z,52.66
2019-06-01T08:36:40.085Z,53.36
2019-06-01T08:39:12.688Z,55.75
2019-06-01T08:41:42.086Z,56.04
2019-06-01T08:44:14.661Z,55.23
2019-06-01T08:46:44.879Z,53.54
2019-06-01T08:49:14.244Z,54.36
2019-06-01T08:51:46.594Z,54.21
2019-06-01T08:54:17.629Z,53.35
2019-06-01T08:56:50.752Z,53.53
2019-06-01T08:59:20.043Z,52.58
2019-06-01T09:01:53.246Z,52.33
2019-06-01T09:04:30.755Z,51.35
2019-06-01T09:07:03.578Z,50.51
2019-06-01T09:09:40.846Z,51.46
2019-06-01T09:12:14.496Z,50.41
2019-06-01T09:14:46.474Z,49.94
2019-06-01T09:17:18.733Z,49.23
2019-06-01T09:19:47.942Z,50.94
2019-06-01T09:22:18.512Z,49.00
2019-06-01T09:24:47.915Z,50.63
2019-06-01T09:27:21.728Z,49.28
2019-06-01T09:29:51.031Z,49.99
2019-06-01T09:32:22.445Z,50.46
2019-06-01T09:34:51.947Z,48.73
2019-06-01T09:37:22.416Z,47.95
2019-06-01T09:39:51.812Z,47.63
2019-06-01T09:42:24.493Z,46.89
2019-06-01T09:44:54.993Z,45.46
2019-06-01T09:47:29.055Z,44.97
2019-06-01T09:50:00.913Z,44.74
2019-06-01T09:52:31.431Z,43.13
2019-06-01T09:55:00.722Z,42.13
2019-06-01T09:57:32.005Z,40.87
2019-06-01T10:00:05.565Z,40.37
2019-06-01T10:02:36.121Z,39.23
2019-06-01T10:05:07.662Z,36.45
2019-06-01T10:07:39.479Z,35.38
2019-06-01T10:10:11.166Z,34.10
2019-06-01T10:12:40.630Z,33.65
2019-06-01T10:15:10.608Z,33.03
2019-06-01T10:17:40.131Z,32.05
2019-06-01T10:20:14.344Z,31.65
2019-06-01T10:22:46.101Z,31.49
2019-06-01T10:25:16.515Z,31.23
2019-06-01T10:27:46.997Z,30.80
2019-06-01T10:30:19.006Z,30.63
2019-06-01T10:32:50.551Z,30.47
2019-06-01T10:35:22.277Z,30.61
2019-06-01T10:37:52.724Z,30.56
2019-06-01T10:40:22.129Z,30.54
2019-06-01T10:42:51.688Z,30.60
2019-06-01T10:45:21.153Z,30.02
2019-06-01T10:47:51.756Z,29.85
2019-06-01T10:50:24.018Z,29.79
2019-06-01T10:52:57.452Z,29.68
2019-06-01T10:55:29.645Z,29.49
2019-06-01T10:58:00.041Z,29.42
2019-06-01T11:00:38.681Z,29.48
2019-06-01T11:03:01.589Z,29.60
2019-06-01T11:05:32.539Z,29.52
2019-06-01T11:08:03.959Z,29.44
2019-06-01T11:10:36.885Z,29.32
2019-06-01T11:13:08.268Z,29.54
2019-06-01T11:15:39.067Z,29.62
2019-06-01T11:18:09.553Z,29.66
2019-06-01T11:20:41.915Z,29.82
2019-06-01T11:23:13.534Z,29.71
2019-06-01T11:25:43.747Z,29.75
2019-06-01T11:28:13.308Z,29.55
2019-06-01T11:30:43.975Z,29.64
2019-06-01T11:33:16.111Z,29.75
2019-06-01T11:35:46.462Z,29.93
2019-06-01T11:38:16.764Z,29.99
2019-06-01T11:40:49.474Z,29.42
2019-06-01T11:43:23.427Z,29.53
2019-06-01T11:45:55.970Z,29.28
2019-06-01T11:48:25.487Z,29.23
2019-06-01T11:50:54.866Z,29.32
2019-06-01T11:53:25.098Z,29.50
2019-06-01T11:55:56.845Z,29.58
2019-06-01T11:58:27.919Z,29.87
2019-06-01T12:00:58.704Z,29.96
2019-06-01T12:03:29.069Z,30.02
2019-06-01T12:06:01.905Z,29.92
2019-06-01T12:08:34.134Z,30.06
2019-06-01T12:11:03.536Z,30.12
2019-06-01T12:13:33.288Z,30.51
2019-06-01T12:16:02.992Z,30.38
2019-06-01T12:18:33.805Z,30.54
2019-06-01T12:21:04.207Z,30.53
2019-06-01T12:23:33.651Z,30.33
2019-06-01T12:26:03.974Z,29.98
2019-06-01T12:28:34.607Z,29.76
2019-06-01T12:31:07.832Z,29.47
2019-06-01T12:33:38.223Z,29.49
2019-06-01T12:36:08.669Z,29.62
2019-06-01T12:38:53.338Z,29.53
2019-06-01T12:41:23.893Z,29.41
2019-06-01T12:44:12.035Z,29.57
2019-06-01T12:46:43.813Z,29.37
2019-06-01T12:49:16.485Z,29.55
2019-06-01T12:51:48.789Z,29.70
2019-06-01T12:54:19.717Z,29.61
2019-06-01T12:56:49.780Z,29.59
2019-06-01T12:59:19.217Z,29.37
2019-06-01T13:01:48.113Z,29.51
2019-06-01T13:04:21.106Z,29.75
2019-06-01T13:09:40.405Z,30.11
2019-06-01T13:12:10.924Z,29.98
2019-06-01T13:14:41.424Z,30.05
2019-06-01T13:17:14.587Z,30.22
2019-06-01T13:19:47.338Z,30.37
2019-06-01T13:22:16.961Z,30.32
2019-06-01T13:24:47.988Z,30.31
2019-06-01T13:27:17.833Z,30.38
2019-06-01T13:29:50.218Z,30.01
2019-06-01T13:32:20.758Z,30.13
2019-06-01T13:34:53.560Z,30.01
2019-06-01T13:37:24.080Z,29.98
2019-06-01T13:39:58.287Z,29.94
2019-06-01T13:42:30.716Z,29.82
2019-06-01T13:45:02.736Z,29.69
2019-06-01T13:47:34.791Z,29.63
2019-06-01T13:50:07.337Z,29.75
2019-06-01T13:52:41.114Z,29.91
2019-06-01T13:55:11.289Z,29.68
2019-06-01T13:57:40.159Z,29.53
2019-06-01T14:00:15.870Z,29.40
2019-06-01T14:02:49.011Z,29.25
2019-06-01T14:05:17.114Z,29.18
2019-06-01T14:07:47.465Z,29.50
2019-06-01T14:10:20.324Z,29.51
2019-06-01T14:12:53.482Z,29.80
2019-06-01T14:15:23.058Z,29.85
2019-06-01T14:17:54.549Z,29.57
2019-06-01T14:20:27.543Z,29.12
2019-06-01T14:22:58.728Z,28.73
2019-06-01T14:25:29.966Z,28.77
2019-06-01T14:28:03.351Z,28.72
2019-06-01T14:30:32.695Z,28.62
2019-06-01T14:33:04.104Z,28.99
2019-06-01T14:35:35.832Z,29.20
2019-06-01T14:38:07.466Z,29.27
2019-06-01T14:40:41.256Z,29.10
2019-06-01T14:43:10.675Z,29.56
2019-06-01T14:45:41.253Z,29.76
2019-06-01T14:48:15.238Z,29.86
2019-06-01T14:50:47.572Z,29.96
2019-06-01T14:53:19.896Z,30.14
2019-06-01T14:55:49.768Z,30.12
2019-06-01T14:58:20.741Z,30.22
2019-06-01T15:00:50.657Z,30.14
2019-06-01T15:03:23.102Z,29.72
2019-06-01T15:05:54.407Z,29.58
2019-06-01T15:08:23.787Z,29.43
2019-06-01T15:10:53.438Z,29.19
2019-06-01T15:13:24.804Z,29.09
2019-06-01T15:15:58.863Z,29.28
2019-06-01T15:18:28.249Z,29.33
2019-06-01T15:20:57.958Z,29.18
2019-06-01T15:23:27.364Z,29.21
2019-06-01T15:25:58.564Z,28.97
2019-06-01T15:28:29.026Z,28.92
2019-06-01T15:30:59.315Z,28.96
2019-06-01T15:33:31.644Z,28.92
2019-06-01T15:36:02.531Z,28.77
2019-06-01T15:38:32.408Z,28.67
2019-06-01T15:41:04.380Z,28.51
2019-06-01T15:43:37.967Z,28.28
2019-06-01T15:46:08.324Z,28.21
2019-06-01T15:48:40.828Z,28.18
2019-06-01T15:51:11.331Z,28.12
2019-06-01T15:53:40.855Z,28.02
2019-06-01T15:56:10.908Z,27.97
2019-06-01T15:58:52.251Z,27.83
2019-06-01T16:01:12.641Z,27.74
2019-06-01T16:03:42.147Z,27.66
2019-06-01T16:06:11.579Z,27.58
2019-06-01T16:08:42.185Z,27.47
2019-06-01T16:11:12.607Z,27.57
2019-06-01T16:13:43.889Z,27.39
2019-06-01T16:16:15.286Z,27.29
2019-06-01T16:18:44.656Z,27.28
2019-06-01T16:21:15.157Z,27.31
2019-06-01T16:23:49.851Z,27.34
2019-06-01T16:26:18.096Z,27.23
2019-06-01T16:28:52.218Z,27.12
2019-06-01T16:31:22.861Z,27.09
2019-06-01T16:33:54.771Z,27.03
2019-06-01T16:36:26.366Z,27.03
2019-06-01T16:39:02.751Z,26.96
2019-06-01T16:41:29.745Z,26.87
2019-06-01T16:44:01.877Z,26.77
2019-06-01T16:46:32.267Z,26.69
2019-06-01T16:49:03.677Z,26.63
2019-06-01T16:51:53.132Z,26.60
2019-06-01T16:54:24.056Z,26.56
2019-06-01T16:56:53.460Z,26.47
2019-06-01T16:59:28.211Z,26.46
2019-06-01T17:01:59.048Z,26.42
2019-06-01T17:04:28.394Z,26.40
2019-06-01T17:06:58.647Z,26.36
2019-06-01T17:09:29.662Z,26.35
2019-06-01T17:12:00.848Z,26.35
2019-06-01T17:14:32.202Z,26.29
2019-06-01T17:17:03.118Z,26.19
2019-06-01T17:19:33.971Z,26.16
2019-06-01T17:22:03.554Z,26.10
2019-06-01T17:24:37.488Z,25.97
2019-06-01T17:27:08.066Z,25.90
2019-06-01T17:29:38.627Z,25.80
2019-06-01T17:32:21.444Z,25.74
2019-06-01T17:34:41.113Z,25.71
2019-06-01T17:37:12.302Z,25.73
2019-06-01T17:39:42.848Z,25.70
2019-06-01T17:42:12.732Z,25.67
2019-06-01T17:44:41.273Z,25.62
2019-06-01T17:47:12.210Z,25.57
2019-06-01T17:49:41.807Z,25.51
2019-06-01T17:52:13.313Z,25.44
2019-06-01T17:54:42.826Z,25.35
2019-06-01T17:57:15.162Z,25.27
2019-06-01T17:59:47.241Z,25.19
2019-06-01T18:02:16.715Z,25.16
2019-06-01T18:04:47.118Z,25.16
2019-06-01T18:07:17.828Z,25.07
2019-06-01T18:09:49.221Z,24.99
2019-06-01T18:12:20.974Z,24.90
2019-06-01T18:14:50.353Z,24.92
2019-06-01T18:17:20.704Z,24.85
2019-06-01T18:19:51.017Z,24.79
2019-06-01T18:22:29.140Z,24.75
2019-06-01T18:24:59.692Z,24.70
2019-06-01T18:27:30.432Z,24.63
2019-06-01T18:30:00.984Z,24.53
2019-06-01T18:32:31.390Z,24.47
2019-06-01T18:35:04.848Z,24.38
2019-06-01T18:37:36.796Z,24.33
2019-06-01T18:40:11.893Z,24.22
2019-06-01T18:42:42.309Z,24.11
2019-06-01T18:45:13.855Z,23.97
2019-06-01T18:47:43.476Z,23.83
2019-06-01T18:50:15.976Z,23.77
2019-06-01T18:52:43.077Z,23.66
2019-06-01T18:55:16.222Z,23.54
2019-06-01T18:57:51.244Z,23.43
2019-06-01T19:00:21.943Z,23.28
2019-06-01T19:02:51.544Z,23.15
2019-06-01T19:05:21.092Z,23.09
2019-06-01T19:07:53.678Z,23.01
2019-06-01T19:10:24.604Z,22.91
2019-06-01T19:12:58.159Z,22.81
2019-06-01T19:15:28.979Z,22.74
2019-06-01T19:17:58.540Z,22.71
2019-06-01T19:20:29.954Z,22.59
2019-06-01T19:23:00.327Z,22.50
2019-06-01T19:25:30.694Z,22.46
2019-06-01T19:28:00.077Z,22.42
2019-06-01T19:30:41.216Z,22.34
2019-06-01T19:33:14.244Z,22.28
2019-06-01T19:35:44.160Z,22.21
2019-06-01T19:38:17.759Z,22.14
2019-06-01T19:40:49.977Z,22.07
2019-06-01T19:43:19.549Z,22.00
2019-06-01T19:45:49.096Z,21.96
2019-06-01T19:48:22.020Z,21.91
2019-06-01T19:50:52.848Z,21.82
2019-06-01T19:53:22.226Z,21.73
2019-06-01T19:55:51.603Z,21.66
2019-06-01T19:58:22.459Z,21.59
2019-06-01T20:00:52.783Z,21.52
2019-06-01T20:03:24.727Z,21.43
2019-06-01T20:05:53.481Z,21.36
2019-06-01T20:08:23.782Z,21.30
2019-06-01T20:10:54.288Z,21.21
2019-06-01T20:13:25.162Z,21.13
2019-06-01T20:15:55.934Z,21.12
2019-06-01T20:18:28.951Z,21.05
2019-06-01T20:20:58.672Z,21.01
2019-06-01T20:23:27.997Z,20.92
2019-06-01T20:25:58.055Z,20.88
2019-06-01T20:28:29.048Z,20.82
2019-06-01T20:30:59.530Z,20.75
2019-06-01T20:33:29.820Z,20.69
2019-06-01T20:36:00.133Z,20.62
2019-06-01T20:38:31.171Z,20.55
2019-06-01T20:41:00.552Z,20.47
2019-06-01T20:43:31.029Z,20.44
2019-06-01T20:46:01.436Z,20.41
2019-06-01T20:48:33.310Z,20.37
2019-06-01T20:51:05.164Z,20.34
2019-06-01T20:53:34.692Z,20.32
2019-06-01T20:56:07.102Z,20.29
2019-06-01T20:58:39.095Z,20.29
2019-06-01T21:01:08.610Z,20.26
2019-06-01T21:03:38.967Z,20.24
2019-06-01T21:06:08.485Z,20.13
2019-06-01T21:08:38.964Z,20.08
2019-06-01T21:11:11.246Z,20.03
2019-06-01T21:13:43.405Z,19.98
2019-06-01T21:16:16.112Z,19.93
2019-06-01T21:18:48.003Z,19.92
2019-06-01T21:21:18.386Z,19.84
2019-06-01T21:23:49.361Z,19.76
2019-06-01T21:26:20.994Z,19.67
2019-06-01T21:28:51.599Z,19.57
2019-06-01T21:31:23.720Z,19.56
2019-06-01T21:33:52.545Z,19.51
2019-06-01T21:36:23.560Z,19.47
2019-06-01T21:38:55.718Z,19.42
2019-06-01T21:41:26.709Z,19.33
2019-06-01T21:43:57.049Z,19.33
2019-06-01T21:46:30.694Z,19.25
2019-06-01T21:49:01.203Z,19.21
2019-06-01T21:51:33.177Z,19.18
2019-06-01T21:54:03.714Z,19.15
2019-06-01T21:56:33.155Z,18.94
2019-06-01T21:59:03.556Z,18.94
2019-06-01T22:01:33.009Z,19.04
2019-06-01T22:04:03.330Z,18.98
2019-06-01T22:06:32.806Z,18.94
2019-06-01T22:09:02.196Z,18.75
2019-06-01T22:11:31.748Z,18.86
2019-06-01T22:14:01.124Z,18.86
2019-06-01T22:16:31.912Z,18.82
2019-06-01T22:19:02.309Z,18.77
2019-06-01T22:21:32.624Z,18.73
2019-06-01T22:24:02.120Z,18.69
2019-06-01T22:26:31.498Z,18.66
2019-06-01T22:29:00.905Z,18.60
2019-06-01T22:31:32.773Z,18.56
2019-06-01T22:34:04.958Z,18.54
2019-06-01T22:36:35.410Z,18.51
2019-06-01T22:39:06.511Z,18.45
2019-06-01T22:41:38.578Z,18.43
2019-06-01T22:44:10.833Z,18.39
2019-06-01T22:46:44.654Z,18.36
2019-06-01T22:49:15.123Z,18.31
2019-06-01T22:51:44.414Z,18.25
2019-06-01T22:54:13.850Z,18.21
2019-06-01T22:56:45.716Z,18.18
2019-06-01T22:59:15.109Z,18.18
2019-06-01T23:01:46.741Z,18.15
2019-06-01T23:04:16.096Z,18.15
2019-06-01T23:06:48.071Z,18.14
2019-06-01T23:09:18.569Z,18.02
2019-06-01T23:11:47.864Z,17.95
2019-06-01T23:14:17.228Z,17.96
2019-06-01T23:16:46.670Z,17.91
2019-06-01T23:19:17.312Z,17.88
2019-06-01T23:21:47.931Z,17.86
2019-06-01T23:24:18.296Z,17.83
2019-06-01T23:26:50.156Z,17.80
2019-06-01T23:29:22.188Z,17.77
2019-06-01T23:31:54.387Z,17.74
2019-06-01T23:34:26.714Z,17.70
2019-06-01T23:36:56.108Z,17.69
2019-06-01T23:39:26.706Z,17.67
2019-06-01T23:41:58.671Z,17.65
2019-06-01T23:44:31.907Z,17.60
2019-06-01T23:46:59.406Z,17.53
2019-06-01T23:49:29.755Z,17.46
2019-06-01T23:51:59.014Z,17.42
2019-06-01T23:54:29.640Z,17.38
2019-06-01T23:57:00.665Z,17.37
2019-06-01T23:59:32.532Z,17.34
